Time;durP1;ratioP1;P1;durP2;ratioP2;P2;SDS_P1;SDS_P2;PMS_P1;PMS_P2;Temp;Humidity;BMP_temperature;BMP_pressure;BME280_temperature;BME280_humidity;BME280_pressure;Samples;Min_cycle;Max_cycle;Signal;HPM_P1;HPM_P2
2022/12/02 00:01:03;;;;;;;80.30;28.03;;;;;;;2.83;79.79;102207.16;5136550;27;20204;-67
2022/12/02 00:03:33;;;;;;;75.93;28.30;;;;;;;2.72;79.75;102205.53;5136686;27;20259;-67
2022/12/02 00:05:59;;;;;;;83.67;26.67;;;;;;;2.71;80.34;102202.94;5137312;27;20171;-66
2022/12/02 00:08:30;;;;;;;82.80;27.07;;;;;;;2.77;80.81;102208.97;5136763;27;20201;-66
2022/12/02 00:11:00;;;;;;;65.03;27.43;;;;;;;2.69;80.35;102210.00;5137061;27;20174;-66
2022/12/02 00:13:30;;;;;;;80.43;27.53;;;;;;;2.73;80.76;102215.22;5137170;27;20552;-67
2022/12/02 00:16:03;;;;;;;70.70;26.67;;;;;;;2.79;80.48;102205.44;5136589;27;20193;-67
2022/12/02 00:18:30;;;;;;;68.17;27.90;;;;;;;2.79;80.22;102198.38;5136246;27;20197;-67
2022/12/02 00:20:56;;;;;;;78.87;27.37;;;;;;;2.80;79.53;102197.47;5136067;27;20198;-67
2022/12/02 00:23:23;;;;;;;84.57;28.50;;;;;;;2.77;80.23;102186.94;5136289;27;20218;-67
2022/12/02 00:25:51;;;;;;;73.37;27.67;;;;;;;2.73;80.16;102190.53;5136403;27;20184;-67
2022/12/02 00:28:18;;;;;;;77.47;28.20;;;;;;;2.77;80.09;102187.81;5136619;27;20195;-67
2022/12/02 00:30:44;;;;;;;89.53;27.77;;;;;;;2.77;80.25;102185.16;5117604;27;20198;-67
2022/12/02 00:33:11;;;;;;;76.97;26.80;;;;;;;2.73;80.07;102182.59;5117464;27;20188;-67
2022/12/02 00:35:37;;;;;;;67.80;26.13;;;;;;;2.71;80.45;102185.28;5136211;27;20182;-67
2022/12/02 00:38:04;;;;;;;77.83;29.37;;;;;;;2.70;80.22;102182.66;5135925;27;20178;-67
2022/12/02 00:40:31;;;;;;;76.77;27.57;;;;;;;2.79;80.05;102171.06;5117700;27;20191;-67
2022/12/02 00:46:30;;;;;;;63.37;25.77;;;;;;;2.73;80.15;102172.00;5117353;27;20219;-67
2022/12/02 00:48:32;;;;;;;60.17;26.00;;;;;;;2.67;79.97;102178.28;5117440;27;20197;-67
2022/12/02 00:50:59;;;;;;;63.03;25.97;;;;;;;2.68;79.89;102169.47;5135649;27;20300;-67
2022/12/02 00:53:25;;;;;;;61.83;25.23;;;;;;;2.66;79.92;102162.41;5117111;27;20210;-67
2022/12/02 00:55:52;;;;;;;66.97;24.43;;;;;;;2.60;80.54;102157.25;5135748;27;20180;-67
2022/12/02 00:58:18;;;;;;;66.90;26.13;;;;;;;2.68;80.34;102150.94;5117093;27;20192;-67
2022/12/02 01:00:44;;;;;;;68.73;25.80;;;;;;;2.70;79.68;102149.13;5135469;27;20190;-67
2022/12/02 01:03:11;;;;;;;73.77;24.90;;;;;;;2.70;79.76;102143.84;5116121;27;20228;-67
2022/12/02 01:05:37;;;;;;;63.10;25.50;;;;;;;2.70;79.85;102138.53;5135625;27;20186;-67
2022/12/02 01:08:04;;;;;;;62.80;24.90;;;;;;;2.69;80.07;102147.38;5135263;27;20177;-67
2022/12/02 01:10:30;;;;;;;70.33;25.87;;;;;;;2.69;80.32;102138.59;5135201;27;20196;-67
2022/12/02 01:12:56;;;;;;;65.13;25.20;;;;;;;2.67;80.31;102135.09;5135166;27;20176;-67
2022/12/02 01:15:23;;;;;;;72.23;26.67;;;;;;;2.68;80.21;102137.72;5116684;27;20218;-67
2022/12/02 01:17:49;;;;;;;54.20;23.80;;;;;;;2.69;80.54;102141.22;5135122;27;20212;-67
2022/12/02 01:20:16;;;;;;;60.90;24.63;;;;;;;2.65;80.03;102132.47;5134909;27;20548;-67
2022/12/02 01:22:42;;;;;;;55.00;25.00;;;;;;;2.63;79.88;102136.91;5135203;27;20659;-67
2022/12/02 01:25:09;;;;;;;54.13;23.80;;;;;;;2.69;80.26;102147.38;5134927;27;20205;-67
2022/12/02 01:27:35;;;;;;;65.80;24.90;;;;;;;2.73;79.81;102149.09;5135207;27;20194;-67
2022/12/02 01:30:02;;;;;;;55.00;23.67;;;;;;;2.74;80.05;102147.31;5135460;27;20182;-67
2022/12/02 01:32:28;;;;;;;55.23;24.47;;;;;;;2.77;79.83;102141.97;5135112;27;20196;-67
2022/12/02 01:34:56;;;;;;;48.73;23.10;;;;;;;2.75;79.78;102141.13;5116338;27;20297;-67
2022/12/02 01:37:23;;;;;;;59.63;24.27;;;;;;;2.80;80.12;102126.03;5134763;27;20175;-67
2022/12/02 01:39:49;;;;;;;58.60;24.97;;;;;;;2.86;79.50;102131.25;5116346;27;20192;-67
2022/12/02 01:42:16;;;;;;;53.07;22.37;;;;;;;2.83;79.35;102141.00;5117067;27;20194;-67
2022/12/02 01:44:42;;;;;;;60.63;23.07;;;;;;;2.76;79.17;102148.19;5116402;27;20213;-67
2022/12/02 01:47:09;;;;;;;46.30;22.97;;;;;;;2.87;79.51;102145.34;5116234;27;20189;-67
2022/12/02 01:49:36;;;;;;;59.00;24.07;;;;;;;2.80;79.47;102141.91;5134731;27;20551;-67
2022/12/02 01:52:02;;;;;;;53.63;22.77;;;;;;;2.80;78.55;102149.84;5116477;27;20616;-67
2022/12/02 01:54:29;;;;;;;60.10;23.30;;;;;;;2.78;79.23;102141.09;5134428;27;20194;-67
2022/12/02 01:56:55;;;;;;;63.03;25.00;;;;;;;2.85;79.22;102134.78;5134507;27;20545;-67
2022/12/02 01:59:22;;;;;;;63.37;25.27;;;;;;;2.83;79.13;102138.38;5115990;27;20225;-66
2022/12/02 02:01:49;;;;;;;50.30;22.40;;;;;;;2.80;79.25;102146.34;5134709;27;20547;-66
2022/12/02 02:04:17;;;;;;;55.57;22.73;;;;;;;2.80;79.29;102141.03;5134254;27;20216;-67
2022/12/02 02:06:46;;;;;;;57.80;22.27;;;;;;;2.81;79.63;102141.03;5115965;27;20243;-67
2022/12/02 02:09:13;;;;;;;66.43;25.53;;;;;;;2.75;79.39;102127.88;5116614;27;20276;-67
2022/12/02 02:11:41;;;;;;;58.67;24.00;;;;;;;2.78;79.27;102130.50;5116122;27;20665;-67
2022/12/02 02:14:10;;;;;;;57.23;22.40;;;;;;;2.85;79.23;102132.16;5115684;27;20211;-67
2022/12/02 02:16:38;;;;;;;62.63;22.03;;;;;;;2.86;79.41;102133.88;5115799;28;20282;-67
2022/12/02 02:19:09;;;;;;;53.00;23.20;;;;;;;2.78;79.62;102135.78;5134185;28;20223;-67
2022/12/02 02:21:41;;;;;;;56.67;22.70;;;;;;;2.77;79.51;102139.31;5115891;28;20296;-67
2022/12/02 02:24:08;;;;;;;51.07;20.27;;;;;;;2.83;79.22;102133.94;5134018;27;20292;-67
2022/12/02 02:26:35;;;;;;;54.83;24.00;;;;;;;2.86;79.16;102127.72;5115658;28;20570;-67
2022/12/02 02:29:02;;;;;;;57.13;23.03;;;;;;;2.84;79.05;102121.59;5115768;28;20236;-66
2022/12/02 02:31:29;;;;;;;51.33;22.27;;;;;;;2.78;79.51;102122.56;5116019;28;20244;-66
2022/12/02 02:33:57;;;;;;;50.83;22.27;;;;;;;2.75;79.73;102122.59;5133986;27;20205;-67
2022/12/02 02:36:24;;;;;;;52.97;22.33;;;;;;;2.84;79.58;102122.44;5115622;28;20205;-67
2022/12/02 02:38:51;;;;;;;52.13;22.13;;;;;;;2.92;78.86;102119.66;5115584;28;20213;-67
2022/12/02 02:41:18;;;;;;;55.73;23.00;;;;;;;2.89;78.88;102112.66;5115589;28;20196;-67
2022/12/02 02:43:46;;;;;;;60.37;24.30;;;;;;;2.87;78.82;102114.44;5115380;28;20214;-67
2022/12/02 02:46:13;;;;;;;50.33;23.70;;;;;;;2.84;79.78;102111.88;5115570;28;20239;-67
2022/12/02 02:48:41;;;;;;;52.33;21.90;;;;;;;2.89;79.87;102104.72;5115738;28;20198;-67
2022/12/02 02:51:08;;;;;;;56.50;20.57;;;;;;;2.90;79.35;102101.19;5133926;28;20199;-67
2022/12/02 02:53:35;;;;;;;56.10;23.70;;;;;;;2.86;79.10;102098.63;5115643;28;20202;-67
2022/12/02 02:56:04;;;;;;;59.40;22.90;;;;;;;2.84;79.62;102092.47;5115955;28;20293;-67
2022/12/02 02:58:34;;;;;;;56.93;22.50;;;;;;;2.85;78.83;102088.91;5115704;28;20195;-67
2022/12/02 03:01:15;;;;;;;61.97;24.93;;;;;;;2.82;79.63;102084.56;5115363;28;20227;-67
2022/12/02 03:03:55;;;;;;;53.73;22.53;;;;;;;2.80;79.72;102083.72;5115397;28;20632;-67
2022/12/02 03:06:25;;;;;;;58.40;23.13;;;;;;;2.81;79.66;102076.69;5134042;28;20266;-67
2022/12/02 03:08:52;;;;;;;54.33;25.00;;;;;;;2.83;79.50;102081.03;5115260;28;20199;-67
2022/12/02 03:11:19;;;;;;;54.37;23.20;;;;;;;2.85;79.50;102075.69;5115520;28;20630;-67
2022/12/02 03:13:47;;;;;;;49.33;23.10;;;;;;;2.83;79.92;102081.03;5133614;27;20208;-67
2022/12/02 03:16:18;;;;;;;60.20;24.40;;;;;;;2.85;79.40;102081.88;5133828;28;20188;-67
2022/12/02 03:18:46;;;;;;;47.50;22.03;;;;;;;2.85;79.78;102075.69;5133914;28;20669;-67
2022/12/02 03:21:15;;;;;;;56.67;23.13;;;;;;;2.83;80.09;102081.03;5133432;28;20687;-67
2022/12/02 03:23:43;;;;;;;56.87;21.70;;;;;;;2.85;80.38;102078.34;5133659;27;20210;-67
2022/12/02 03:26:09;;;;;;;62.57;24.67;;;;;;;2.85;80.26;102081.88;5134390;27;20202;-67
2022/12/02 03:28:36;;;;;;;59.07;23.10;;;;;;;2.80;80.23;102072.25;5137505;27;20195;-67
2022/12/02 03:31:03;;;;;;;52.30;22.87;;;;;;;2.85;79.79;102076.59;5137196;27;20656;-67
2022/12/02 03:33:30;;;;;;;54.03;23.10;;;;;;;2.80;80.19;102074.91;5137340;27;20207;-67
2022/12/02 03:35:56;;;;;;;59.60;22.73;;;;;;;2.79;80.18;102075.81;5137037;27;20187;-67
2022/12/02 03:38:23;;;;;;;57.93;22.50;;;;;;;2.81;80.25;102066.09;5137366;27;20586;-67
2022/12/02 03:40:50;;;;;;;58.23;23.50;;;;;;;2.83;80.40;102070.47;5137307;27;20202;-67
2022/12/02 03:43:16;;;;;;;55.40;21.90;;;;;;;2.79;80.38;102058.16;5137089;27;20215;-67
2022/12/02 03:45:43;;;;;;;64.13;24.63;;;;;;;2.85;80.27;102063.38;5137477;27;20198;-67
2022/12/02 03:48:11;;;;;;;59.73;24.27;;;;;;;2.85;80.19;102043.94;5136908;27;20188;-67
2022/12/02 03:50:39;;;;;;;57.33;24.37;;;;;;;2.82;80.49;102055.47;5136811;27;20531;-67
2022/12/02 03:53:06;;;;;;;60.70;24.17;;;;;;;2.79;80.51;102059.94;5136981;27;20549;-67
2022/12/02 03:55:33;;;;;;;52.03;23.60;;;;;;;2.89;79.82;102056.22;5137039;27;20209;-67
2022/12/02 03:58:04;;;;;;;67.53;24.40;;;;;;;2.80;80.47;102056.41;5136704;27;20224;-67
2022/12/02 04:00:31;;;;;;;57.70;22.93;;;;;;;2.77;80.95;102062.63;5136653;27;20211;-67
2022/12/02 04:02:57;;;;;;;56.33;23.37;;;;;;;2.76;81.11;102055.59;5136506;27;20233;-67
2022/12/02 04:05:24;;;;;;;52.97;22.77;;;;;;;2.76;81.29;102053.81;5136542;27;20215;-67
2022/12/02 04:07:50;;;;;;;64.53;23.07;;;;;;;2.81;81.20;102053.72;5137011;27;20180;-67
2022/12/02 04:10:17;;;;;;;72.10;23.60;;;;;;;2.81;81.37;102053.72;5136749;27;20184;-67
2022/12/02 04:12:43;;;;;;;59.43;23.07;;;;;;;2.84;81.36;102037.78;5137258;27;20192;-67
2022/12/02 04:15:10;;;;;;;88.13;24.73;;;;;;;2.83;81.67;102040.50;5136607;27;20687;-67
2022/12/02 04:17:36;;;;;;;55.97;22.13;;;;;;;2.85;81.55;102028.06;5136248;27;20186;-67
2022/12/02 04:20:04;;;;;;;65.00;24.07;;;;;;;2.87;81.60;102034.22;5136191;27;20179;-67
2022/12/02 04:22:31;;;;;;;64.40;24.27;;;;;;;2.89;81.98;102022.69;5136859;27;20609;-67
2022/12/02 04:24:58;;;;;;;59.20;23.23;;;;;;;2.86;81.70;102019.25;5135996;27;20564;-67
2022/12/02 04:27:25;;;;;;;65.27;22.73;;;;;;;2.81;81.63;102023.75;5136145;27;20200;-67
2022/12/02 04:29:52;;;;;;;62.70;21.73;;;;;;;2.78;82.06;102030.00;5136081;27;20188;-67
2022/12/02 04:32:18;;;;;;;55.33;21.83;;;;;;;2.85;81.21;102028.97;5136002;27;20194;-67
2022/12/02 04:34:44;;;;;;;58.07;22.30;;;;;;;2.84;82.03;102027.22;5136173;27;20202;-67
2022/12/02 04:37:11;;;;;;;64.43;22.67;;;;;;;2.85;81.65;102021.03;5135442;27;20184;-67
2022/12/02 04:39:37;;;;;;;59.70;24.33;;;;;;;2.84;81.96;102023.69;5135163;27;20187;-67
2022/12/02 04:42:04;;;;;;;58.53;21.27;;;;;;;2.85;82.40;102021.03;5136438;27;20175;-67
2022/12/02 04:44:30;;;;;;;64.87;24.03;;;;;;;2.82;82.13;102021.06;5135647;27;20238;-67
2022/12/02 04:46:57;;;;;;;78.43;22.97;;;;;;;2.86;82.63;102027.19;5135721;27;20193;-67
2022/12/02 04:49:23;;;;;;;53.40;22.03;;;;;;;2.79;82.29;102020.28;5135972;27;20181;-67
2022/12/02 04:51:50;;;;;;;59.90;22.20;;;;;;;2.86;82.71;102016.63;5135865;27;20183;-67
2022/12/02 04:54:16;;;;;;;60.70;22.23;;;;;;;2.84;82.27;102029.00;5135923;27;20213;-67
2022/12/02 04:56:42;;;;;;;69.43;22.70;;;;;;;2.81;83.00;102018.47;5135445;27;20184;-67
2022/12/02 04:59:09;;;;;;;67.97;22.57;;;;;;;2.78;83.09;102016.75;5135773;27;20182;-67
2022/12/02 05:01:35;;;;;;;70.37;23.87;;;;;;;2.80;83.15;102019.34;5135416;27;20200;-67
2022/12/02 05:04:01;;;;;;;57.27;22.47;;;;;;;2.77;82.77;102009.72;5135199;27;20224;-67
2022/12/02 05:06:28;;;;;;;69.47;21.43;;;;;;;2.78;82.90;102011.47;5135370;27;20230;-67
2022/12/02 05:08:54;;;;;;;54.40;21.77;;;;;;;2.75;83.31;102008.88;5135281;27;20189;-67
2022/12/02 05:11:20;;;;;;;57.33;22.53;;;;;;;2.73;83.76;102008.00;5135599;27;20201;-67
2022/12/02 05:13:47;;;;;;;63.10;21.77;;;;;;;2.72;84.10;102006.28;5135730;27;20204;-67
2022/12/02 05:16:13;;;;;;;68.10;21.57;;;;;;;2.71;84.25;102005.41;5135437;27;20190;-67
2022/12/02 05:18:40;;;;;;;56.67;20.57;;;;;;;2.71;84.48;102004.56;5135661;27;20182;-67
2022/12/02 05:21:06;;;;;;;60.87;21.83;;;;;;;2.71;84.40;102004.56;5135063;27;20190;-67
2022/12/02 05:23:32;;;;;;;66.80;22.07;;;;;;;2.67;84.63;102001.06;5134882;27;20212;-67
2022/12/02 05:25:59;;;;;;;53.17;20.20;;;;;;;2.68;84.42;102000.19;5135050;27;20550;-67
2022/12/02 05:28:25;;;;;;;46.53;19.97;;;;;;;2.71;85.19;101993.97;5135233;27;20180;-67
2022/12/02 05:30:51;;;;;;;58.03;21.00;;;;;;;2.59;85.59;101989.78;5134930;27;20186;-67
2022/12/02 05:33:18;;;;;;;55.27;21.17;;;;;;;2.58;85.39;101987.16;5134996;27;20199;-67
2022/12/02 05:35:44;;;;;;;53.63;20.43;;;;;;;2.57;85.78;101991.56;5135098;27;20563;-67
2022/12/02 05:38:10;;;;;;;64.50;22.57;;;;;;;2.52;86.05;101988.16;5134831;27;20182;-67
2022/12/02 05:40:37;;;;;;;53.00;21.20;;;;;;;2.53;85.95;101990.75;5134732;27;20181;-67
2022/12/02 05:43:33;;;;;;;55.20;21.33;;;;;;;2.46;86.06;101990.88;5134862;27;20551;-67
2022/12/02 05:45:59;;;;;;;61.83;21.37;;;;;;;2.52;86.21;101985.50;5133574;27;20217;-67
2022/12/02 05:48:26;;;;;;;53.13;20.13;;;;;;;2.49;86.35;101999.66;5134663;27;20543;-67
2022/12/02 05:50:53;;;;;;;55.57;21.13;;;;;;;2.58;85.97;101995.09;5134245;27;20190;-67
2022/12/02 05:53:25;;;;;;;63.87;21.77;;;;;;;2.55;86.68;102001.31;5134522;27;20197;-67
2022/12/02 05:55:52;;;;;;;69.67;22.20;;;;;;;2.52;86.28;102002.22;5134486;27;20192;-67
2022/12/02 05:58:19;;;;;;;69.97;23.13;;;;;;;2.52;86.53;101996.06;5135002;27;20181;-67
2022/12/02 06:00:53;;;;;;;77.27;24.10;;;;;;;2.48;86.37;101999.66;5135519;27;20530;-67
2022/12/02 06:03:20;;;;;;;70.20;22.30;;;;;;;2.44;86.98;102000.59;5134813;27;20252;-67
2022/12/02 06:05:48;;;;;;;71.73;22.80;;;;;;;2.48;85.97;101999.66;5134368;27;20233;-67
2022/12/02 06:08:20;;;;;;;72.20;24.00;;;;;;;2.47;86.49;101998.81;5134876;27;20181;-67
2022/12/02 06:10:50;;;;;;;70.77;23.83;;;;;;;2.49;86.47;101996.09;5134597;27;20177;-67
2022/12/02 06:13:26;;;;;;;79.37;23.47;;;;;;;2.45;86.55;102008.53;5134746;27;20677;-67
2022/12/02 06:15:53;;;;;;;68.10;23.30;;;;;;;2.42;86.59;102005.94;5134522;27;20554;-67
2022/12/02 06:18:28;;;;;;;64.97;23.50;;;;;;;2.35;86.54;102006.94;5115804;28;20242;-67
2022/12/02 06:20:58;;;;;;;69.70;23.23;;;;;;;2.45;86.31;102008.53;5134335;28;20191;-67
2022/12/02 06:23:26;;;;;;;78.47;25.23;;;;;;;2.37;86.39;102001.63;5116070;27;20582;-67
2022/12/02 06:25:53;;;;;;;82.73;24.37;;;;;;;2.41;86.60;101998.88;5134078;28;20196;-67
2022/12/02 06:28:28;;;;;;;75.20;22.83;;;;;;;2.46;86.07;102004.09;5134186;28;20539;-67
2022/12/02 06:30:59;;;;;;;81.07;25.33;;;;;;;2.49;85.89;102006.69;5134606;28;20186;-67
2022/12/02 06:33:34;;;;;;;65.80;22.83;;;;;;;2.44;86.01;102003.25;5134003;27;20717;-67
2022/12/02 06:36:10;;;;;;;68.83;22.70;;;;;;;2.46;86.14;102002.31;5134049;28;20183;-67
2022/12/02 06:38:48;;;;;;;64.27;23.77;;;;;;;2.44;86.43;102000.59;5134571;28;20181;-67
2022/12/02 06:41:20;;;;;;;75.17;24.27;;;;;;;2.42;85.75;102005.94;5134039;28;20184;-67
2022/12/02 06:45:03;;;;;;;74.67;22.80;;;;;;;2.47;85.67;102005.88;5134028;27;20213;-67
2022/12/02 06:46:34;;;;;;;75.33;25.00;;;;;;;2.38;85.65;102000.72;5133769;28;20192;-67
2022/12/02 06:49:18;;;;;;;72.27;23.40;;;;;;;2.37;85.51;102001.63;5133914;28;20520;-67
2022/12/02 06:51:44;;;;;;;77.97;23.77;;;;;;;2.29;85.43;101999.97;5134180;28;20178;-67
2022/12/02 06:54:19;;;;;;;69.90;24.30;;;;;;;2.39;85.60;101995.41;5115376;28;20209;-67
2022/12/02 06:56:47;;;;;;;76.37;24.27;;;;;;;2.39;84.96;101998.03;5134142;28;20176;-67
2022/12/02 06:59:18;;;;;;;84.67;24.83;;;;;;;2.36;85.09;101992.81;5133865;28;20184;-67
2022/12/02 07:01:44;;;;;;;69.43;24.10;;;;;;;2.31;85.41;101984.09;5135330;27;20615;-67
2022/12/02 07:04:29;;;;;;;84.73;24.47;;;;;;;2.29;85.04;101992.03;5137575;27;20216;-67
2022/12/02 07:07:11;;;;;;;74.53;24.57;;;;;;;2.26;85.24;101989.47;5138014;27;20184;-67
2022/12/02 07:09:41;;;;;;;75.27;24.77;;;;;;;2.29;85.28;101991.19;5138170;27;20532;-67
2022/12/02 07:12:15;;;;;;;64.30;24.13;;;;;;;2.27;85.39;101995.59;5137860;27;20260;-67
2022/12/02 07:14:48;;;;;;;77.57;24.53;;;;;;;2.29;85.27;101997.31;5137660;27;20210;-67
2022/12/02 07:17:26;;;;;;;85.20;24.90;;;;;;;2.32;85.26;101994.66;5137550;27;20178;-67
2022/12/02 07:19:58;;;;;;;80.30;23.40;;;;;;;2.33;84.66;101999.03;5138050;27;20542;-67
2022/12/02 07:22:34;;;;;;;63.77;24.40;;;;;;;2.31;85.06;101998.19;5137703;27;20183;-67
2022/12/02 07:25:14;;;;;;;71.03;25.60;;;;;;;2.37;84.79;102004.25;5137573;27;20224;-67
2022/12/02 07:27:44;;;;;;;63.80;22.80;;;;;;;2.34;84.99;101999.91;5137378;27;20180;-67
2022/12/02 07:30:30;;;;;;;68.70;22.50;;;;;;;2.41;84.93;102003.31;5137748;27;20169;-67
2022/12/02 07:32:58;;;;;;;65.67;23.00;;;;;;;2.40;85.06;102001.59;5137666;27;20169;-67
2022/12/02 07:35:25;;;;;;;65.93;23.20;;;;;;;2.43;85.00;102001.53;5137246;27;20211;-67
2022/12/02 07:37:52;;;;;;;65.63;23.70;;;;;;;2.42;85.26;102000.66;5137683;27;20194;-67
2022/12/02 07:40:19;;;;;;;71.23;24.50;;;;;;;2.40;85.31;102001.59;5118815;27;20195;-67
2022/12/02 07:42:46;;;;;;;73.30;24.10;;;;;;;2.39;85.05;101995.41;5137030;27;20195;-67
2022/12/02 07:45:15;;;;;;;81.20;24.37;;;;;;;2.42;85.34;102002.41;5136864;27;20220;-67
2022/12/02 07:47:42;;;;;;;73.50;25.10;;;;;;;2.48;84.61;101992.59;5136885;27;20548;-67
2022/12/02 07:50:10;;;;;;;67.37;22.83;;;;;;;2.49;84.36;101999.66;5137468;27;20199;-67
2022/12/02 07:52:37;;;;;;;72.53;24.03;;;;;;;2.47;84.36;102004.09;5137131;27;20205;-67
2022/12/02 07:55:05;;;;;;;69.80;22.67;;;;;;;2.42;84.35;101997.13;5135468;27;20203;-67
2022/12/02 07:57:33;;;;;;;64.97;23.97;;;;;;;2.41;84.71;101998.88;5136753;27;20182;-67
2022/12/02 08:00:03;;;;;;;75.20;24.30;;;;;;;2.38;84.56;101987.50;5136710;27;20191;-67
2022/12/02 08:02:37;;;;;;;63.87;24.47;;;;;;;2.41;84.52;101998.03;5136628;27;20211;-67
2022/12/02 08:05:04;;;;;;;78.23;24.60;;;;;;;2.33;84.74;101993.75;5136468;27;20232;-67
2022/12/02 08:07:31;;;;;;;59.23;22.30;;;;;;;2.35;84.10;101999.00;5137088;27;20182;-67
2022/12/02 08:09:57;;;;;;;71.73;23.60;;;;;;;2.32;84.46;101991.13;5136422;27;20196;-67
2022/12/02 08:12:24;;;;;;;68.43;23.57;;;;;;;2.45;84.23;101989.16;5136519;27;20184;-67
2022/12/02 08:14:50;;;;;;;70.03;23.13;;;;;;;2.37;84.53;101986.66;5136319;27;20201;-67
2022/12/02 08:17:17;;;;;;;65.80;23.37;;;;;;;2.31;84.04;101979.69;5136366;27;20187;-67
2022/12/02 08:19:43;;;;;;;69.10;24.27;;;;;;;2.33;84.23;101982.31;5136854;27;20263;-67
2022/12/02 08:22:09;;;;;;;57.63;22.07;;;;;;;2.35;83.98;101988.44;5136186;27;20185;-67
2022/12/02 08:24:36;;;;;;;61.73;23.77;;;;;;;2.42;84.08;101989.19;5136219;27;20216;-67
2022/12/02 08:27:02;;;;;;;55.77;22.00;;;;;;;2.43;83.75;101989.16;5136492;27;20264;-67
2022/12/02 08:29:29;;;;;;;74.67;22.00;;;;;;;2.44;83.90;101982.09;5130648;27;20224;-67
2022/12/02 08:31:55;;;;;;;66.80;22.80;;;;;;;2.51;83.79;101983.75;5134201;27;20656;-67
2022/12/02 08:34:22;;;;;;;74.87;24.00;;;;;;;2.43;83.49;101983.00;5132964;27;20210;-67
2022/12/02 08:36:48;;;;;;;54.47;23.07;;;;;;;2.48;83.56;101992.59;5116448;27;20210;-67
2022/12/02 08:39:15;;;;;;;57.67;22.97;;;;;;;2.44;83.35;101996.22;5135894;27;20196;-67
2022/12/02 08:41:41;;;;;;;70.73;23.27;;;;;;;2.44;83.71;101987.38;5136357;27;20194;-67
2022/12/02 08:44:07;;;;;;;63.83;22.97;;;;;;;2.45;83.38;101997.09;5135613;27;20219;-67
2022/12/02 08:46:35;;;;;;;57.47;22.77;;;;;;;2.50;82.54;101998.72;5134494;27;20203;-67
2022/12/02 08:49:05;;;;;;;62.47;22.63;;;;;;;2.52;82.83;101998.72;5132745;27;20189;-67
2022/12/02 08:51:32;;;;;;;57.27;23.40;;;;;;;2.46;82.17;101999.69;5131403;27;20192;-67
2022/12/02 08:53:58;;;;;;;59.13;23.40;;;;;;;2.43;82.26;101996.22;5132884;27;20289;-67
2022/12/02 08:56:25;;;;;;;68.57;23.47;;;;;;;2.43;82.05;102005.03;5135622;27;20188;-67
2022/12/02 08:58:51;;;;;;;58.47;23.93;;;;;;;2.54;82.09;101989.84;5135479;27;20192;-67
2022/12/02 09:01:17;;;;;;;62.77;24.47;;;;;;;2.57;81.95;101993.34;5134456;27;20550;-67
2022/12/02 09:03:44;;;;;;;59.27;24.37;;;;;;;2.57;81.71;101990.72;5135353;27;20213;-67
2022/12/02 09:06:10;;;;;;;65.23;22.90;;;;;;;2.60;81.56;101991.50;5135315;27;20205;-67
2022/12/02 09:08:36;;;;;;;59.83;23.47;;;;;;;2.55;81.35;102009.22;5135722;27;20180;-67
2022/12/02 09:11:03;;;;;;;55.93;22.60;;;;;;;2.60;81.57;101996.78;5135239;27;20187;-67
2022/12/02 09:13:29;;;;;;;53.40;23.17;;;;;;;2.53;81.57;102008.38;5135443;27;20205;-67
2022/12/02 09:15:56;;;;;;;55.87;23.43;;;;;;;2.53;81.13;102009.25;5135162;27;20199;-67
2022/12/02 09:18:23;;;;;;;56.87;22.33;;;;;;;2.52;81.34;102010.16;5134740;27;20622;-67
2022/12/02 09:20:50;;;;;;;50.10;23.37;;;;;;;2.51;81.49;102008.44;5135118;27;20197;-67
2022/12/02 09:23:16;;;;;;;57.03;25.37;;;;;;;2.45;81.97;102013.81;5134956;27;20178;-67
2022/12/02 09:25:43;;;;;;;57.30;24.83;;;;;;;2.50;81.79;102011.97;5134495;27;20201;-67
2022/12/02 09:28:09;;;;;;;56.00;24.77;;;;;;;2.54;80.83;102013.66;5135345;27;20188;-67
2022/12/02 09:30:35;;;;;;;68.73;25.03;;;;;;;2.55;80.64;102009.22;5135274;27;20535;-67
2022/12/02 09:33:02;;;;;;;53.17;24.20;;;;;;;2.50;81.11;102011.09;5135269;27;20545;-67
2022/12/02 09:35:28;;;;;;;61.77;24.17;;;;;;;2.48;81.24;102010.25;5133824;27;20278;-67
2022/12/02 09:37:55;;;;;;;54.83;24.73;;;;;;;2.51;80.67;102010.19;5135399;27;20662;-67
2022/12/02 09:40:22;;;;;;;62.40;26.63;;;;;;;2.53;80.74;102011.03;5135019;27;20204;-67
2022/12/02 09:42:49;;;;;;;60.40;23.90;;;;;;;2.44;80.78;102009.44;5133712;27;20676;-67
2022/12/02 09:45:16;;;;;;;59.63;25.03;;;;;;;2.47;80.99;102005.88;5130998;27;20235;-67
2022/12/02 09:47:42;;;;;;;62.10;23.97;;;;;;;2.47;80.59;102009.38;5133712;27;20200;-67
2022/12/02 09:50:13;;;;;;;55.47;25.40;;;;;;;2.47;80.45;102012.03;5134964;27;20197;-67
2022/12/02 09:52:40;;;;;;;58.30;23.57;;;;;;;2.43;80.49;102002.38;5134285;27;20200;-67
2022/12/02 09:55:12;;;;;;;62.90;24.17;;;;;;;2.41;80.63;102001.53;5130843;27;20197;-67
2022/12/02 09:57:38;;;;;;;49.93;22.93;;;;;;;2.37;80.79;102002.50;5133503;27;20199;-67
2022/12/02 10:00:11;;;;;;;56.67;24.70;;;;;;;2.43;80.77;101999.75;5134679;27;20188;-67
2022/12/02 10:02:40;;;;;;;66.10;24.40;;;;;;;2.41;80.38;102005.97;5132899;27;20195;-67
2022/12/02 10:05:14;;;;;;;61.07;24.53;;;;;;;2.48;80.22;102003.16;5133851;27;20204;-68
2022/12/02 10:07:42;;;;;;;50.93;23.13;;;;;;;2.41;80.09;102001.53;5134987;27;20169;-67
2022/12/02 10:10:21;;;;;;;61.47;24.50;;;;;;;2.50;79.95;102001.38;5134737;27;20528;-67
2022/12/02 10:12:47;;;;;;;66.47;25.73;;;;;;;2.46;80.10;101997.03;5133066;27;20194;-67
2022/12/02 10:15:18;;;;;;;55.70;23.70;;;;;;;2.42;79.97;102003.28;5131967;27;20206;-67
2022/12/02 10:17:45;;;;;;;61.37;24.23;;;;;;;2.48;79.94;102010.25;5134647;27;20181;-67
2022/12/02 10:20:19;;;;;;;64.83;24.40;;;;;;;2.50;79.62;102009.31;5134298;28;20660;-67
2022/12/02 10:23:13;;;;;;;57.57;24.53;;;;;;;2.51;79.67;102013.72;5133300;28;20193;-67
2022/12/02 10:25:46;;;;;;;63.57;26.07;;;;;;;2.44;79.52;102009.44;5131304;28;20211;-67
2022/12/02 10:28:24;;;;;;;57.67;24.47;;;;;;;2.50;79.51;102004.03;5114237;28;20180;-67
2022/12/02 10:31:09;;;;;;;60.33;24.30;;;;;;;2.51;79.72;102005.78;5123373;28;20181;-67
2022/12/02 10:33:39;;;;;;;65.03;25.30;;;;;;;2.49;79.41;101998.75;5134168;28;20208;-67
2022/12/02 10:36:06;;;;;;;62.47;25.83;;;;;;;2.41;79.46;102003.31;5129893;27;20197;-67
2022/12/02 10:38:37;;;;;;;71.43;25.77;;;;;;;2.43;79.39;101997.09;5138791;27;20189;-66
2022/12/02 10:41:23;;;;;;;64.87;24.90;;;;;;;2.36;79.67;101994.59;5135115;27;20190;-67
2022/12/02 10:43:52;;;;;;;71.23;24.90;;;;;;;2.39;79.66;101991.88;5137364;27;20215;-67
2022/12/02 10:46:20;;;;;;;58.40;23.17;;;;;;;2.47;79.53;101980.28;5137611;27;20214;-67
2022/12/02 10:48:47;;;;;;;57.77;24.13;;;;;;;2.49;79.71;101982.88;5138134;27;20181;-67
2022/12/02 10:51:20;;;;;;;70.23;25.77;;;;;;;2.36;79.36;101984.88;5135759;27;20195;-66
2022/12/02 10:53:49;;;;;;;75.03;26.73;;;;;;;2.28;79.52;101986.81;5138296;27;20235;-67
2022/12/02 10:56:18;;;;;;;59.13;24.97;;;;;;;2.32;79.39;101983.19;5135893;27;20275;-67
2022/12/02 10:58:46;;;;;;;70.80;27.13;;;;;;;2.29;79.16;101986.75;5137932;27;20555;-66
2022/12/02 11:01:13;;;;;;;77.57;25.83;;;;;;;2.21;79.95;101990.44;5136281;27;20554;-67
2022/12/02 11:03:39;;;;;;;73.60;26.93;;;;;;;2.24;80.24;101985.09;5135648;27;20687;-67
2022/12/02 11:06:13;;;;;;;66.23;25.53;;;;;;;2.18;80.21;101986.09;5134594;27;20673;-68
2022/12/02 11:08:41;;;;;;;77.30;25.57;;;;;;;2.23;80.16;101972.81;5117523;28;20617;-66
2022/12/02 11:11:21;;;;;;;81.23;26.93;;;;;;;2.25;79.90;101965.69;5117434;28;20217;-66
2022/12/02 11:14:02;;;;;;;59.63;25.07;;;;;;;2.27;79.77;101963.91;5117323;28;20212;-67
2022/12/02 11:16:28;;;;;;;78.93;27.40;;;;;;;2.41;79.83;101959.25;5128542;27;20181;-67
2022/12/02 11:18:56;;;;;;;70.13;26.57;;;;;;;2.40;79.51;101965.44;5135810;27;20527;-67
2022/12/02 11:21:28;;;;;;;70.57;26.80;;;;;;;2.46;79.75;101965.31;5137515;27;20199;-67
2022/12/02 11:24:23;;;;;;;70.57;26.20;;;;;;;2.54;79.35;101967.84;5137574;27;20242;-67
2022/12/02 11:26:58;;;;;;;69.27;26.97;;;;;;;2.50;79.26;101969.66;5136888;27;20241;-67